Tropical Cyclones
[Index]
Main Index Home Page Stock Weather Photos Extreme Storms Discussion Storm News and Storm Chasing Reports Tropical Cyclones / Hurricanes / Typhoons Weather Data and Links Wild Fires / Bushfires Weather Observation Techniques Weather Picture Catalogue Tornado Pictures and Reports Stock Video Footage and DVDs for sale
Season 1996-1997 Tropical Cyclone FERGUS Track Map
Season 1996-1997 Summaries: [BoM-AU] [JTWC-AU] [JTWC-SIO] [JTWC-SPAC] [JTWC-SH]
<<- Previous TC | BoM 1996-1997 Season | Next TC ->>

click for intensity scale information  Lat/long Grid: Show Hide

 Date Labels: Show Hide

Bureau of Meteorology Tropical Cyclone Data

Name: FERGUS
Number: 796 / 199697_05

23 Dec 1996 18:00 UTC to 28 Dec 1996 06:00 UTC

    date/time    lat    long    hPa   cat  kts
1996-12-23 18   12.8   160.0    995    1    35          
1996-12-24 00   13.2   159.6    995    1    35          
1996-12-24 06   13.2   159.5    995    1    41          
1996-12-24 12   12.7   158.8    995    1    41          
1996-12-24 18   12.9   157.9    985    2    45          
1996-12-25 00   11.6   158.0    975    2    51          
1996-12-25 06   11.2   159.1    975    2    51          
1996-12-25 12   11.1   159.6    975    2    51          
1996-12-25 18   11.5   159.9    975    2    51          
1996-12-26 00   11.6   160.7    975    2    60          
1996-12-26 06   11.8   160.8    975    2    60          
1996-12-26 12   12.0   161.6    975    2    64          
1996-12-26 18   12.5   162.7    970    3    70          
1996-12-27 00   13.5   163.8    970    3    70          
1996-12-27 06   15.3   164.9    970    3    70          
1996-12-27 12   16.3   165.9    970    3    70          
1996-12-27 18   17.4   167.1    960    3    82          
1996-12-28 00   19.0   168.0    955    4    82          
1996-12-28 06   20.1   169.3    955    4    82          
Winds are 10-min average.

Tropical cyclone tracks developed by Michael Bath using data from the Bureau of Meteorology and Google Maps.


[Australian Severe Weather index] [Copyright Notice] [Email Contacts] [Search This Site] [Privacy Policy]
Document: tropical_cyclone_fergus.htm Updated: 30 May 2013